Time;durP1;ratioP1;P1;durP2;ratioP2;P2;SDS_P1;SDS_P2;PMS_P1;PMS_P2;Temp;Humidity;BMP_temperature;BMP_pressure;BME280_temperature;BME280_humidity;BME280_pressure;Samples;Min_cycle;Max_cycle;Signal;HPM_P1;HPM_P2
2024/01/07 00:01:30;;;;;;;2.90;1.70;;;1.90;85.90;;;;;;5010489;28;20292;-71
2024/01/07 00:03:57;;;;;;;3.53;1.80;;;2.00;86.00;;;;;;5011462;28;20302;-71
2024/01/07 00:06:25;;;;;;;3.13;1.90;;;2.00;86.10;;;;;;5011861;28;20256;-71
2024/01/07 00:08:52;;;;;;;1.60;1.50;;;2.00;85.90;;;;;;4993523;28;20207;-70
2024/01/07 00:11:19;;;;;;;1.60;1.50;;;2.00;85.90;;;;;;5008741;28;20644;-71
2024/01/07 00:13:47;;;;;;;2.73;1.97;;;1.90;86.00;;;;;;5009657;28;20213;-70
2024/01/07 00:16:14;;;;;;;1.67;1.50;;;1.90;86.10;;;;;;5010278;28;20196;-70
2024/01/07 00:18:41;;;;;;;3.63;1.97;;;1.90;86.00;;;;;;5011899;28;20203;-69
2024/01/07 00:21:08;;;;;;;1.50;1.40;;;1.80;85.90;;;;;;5008429;28;20199;-70
2024/01/07 00:23:36;;;;;;;1.80;1.70;;;1.80;85.80;;;;;;5011205;28;20302;-70
2024/01/07 00:26:04;;;;;;;2.70;1.70;;;1.80;85.70;;;;;;5010115;28;20215;-70
2024/01/07 00:28:31;;;;;;;3.23;1.90;;;1.80;85.70;;;;;;5010720;28;20203;-70
2024/01/07 00:30:58;;;;;;;2.07;1.70;;;1.80;85.80;;;;;;4989735;28;20222;-70
2024/01/07 00:33:25;;;;;;;1.80;1.70;;;1.70;85.80;;;;;;5015985;28;20199;-70
2024/01/07 00:35:52;;;;;;;2.87;2.03;;;1.70;85.70;;;;;;5007764;28;20191;-71
2024/01/07 00:38:19;;;;;;;2.60;1.97;;;1.70;85.60;;;;;;4990949;28;20294;-70
2024/01/07 00:40:48;;;;;;;1.90;1.70;;;1.60;85.40;;;;;;5007940;28;20290;-70
2024/01/07 00:43:15;;;;;;;3.37;1.80;;;1.60;85.60;;;;;;5009425;28;20210;-70
2024/01/07 00:45:42;;;;;;;2.20;1.40;;;1.60;86.00;;;;;;4993264;28;20614;-71
2024/01/07 00:48:09;;;;;;;2.27;1.57;;;1.60;86.10;;;;;;5020904;28;20733;-72
2024/01/07 00:50:36;;;;;;;2.50;1.77;;;1.60;86.40;;;;;;5011445;28;20226;-72
2024/01/07 00:53:04;;;;;;;2.20;2.00;;;1.70;86.60;;;;;;4994377;28;20215;-72
2024/01/07 00:55:31;;;;;;;2.30;1.80;;;1.70;86.20;;;;;;4994004;28;20215;-73
2024/01/07 00:57:59;;;;;;;2.37;1.67;;;1.80;86.20;;;;;;4992997;28;20540;-72
2024/01/07 01:00:27;;;;;;;1.50;1.40;;;2.10;86.60;;;;;;5013415;28;20206;-72
2024/01/07 01:02:54;;;;;;;2.70;1.63;;;1.80;86.20;;;;;;4999601;28;20246;-72
2024/01/07 01:05:21;;;;;;;2.50;2.10;;;1.80;86.30;;;;;;4994132;28;20214;-70
2024/01/07 01:07:48;;;;;;;2.10;1.90;;;1.80;86.30;;;;;;4998751;28;20667;-72
2024/01/07 01:10:17;;;;;;;3.30;2.10;;;1.80;86.30;;;;;;4993760;28;20214;-73
2024/01/07 01:12:44;;;;;;;4.83;1.60;;;1.90;86.40;;;;;;4992770;28;20305;-72
2024/01/07 01:15:13;;;;;;;1.33;1.20;;;1.90;86.50;;;;;;5020431;28;20709;-73
2024/01/07 01:17:40;;;;;;;2.80;2.23;;;1.90;86.60;;;;;;5014187;28;20595;-73
2024/01/07 01:20:08;;;;;;;2.80;1.80;;;1.00;85.70;;;;;;5011078;28;20203;-72
2024/01/07 01:22:35;;;;;;;2.10;1.90;;;1.80;86.90;;;;;;5016257;28;20308;-72
2024/01/07 01:25:03;;;;;;;4.20;1.90;;;1.80;87.10;;;;;;5010582;28;20203;-72
2024/01/07 01:27:30;;;;;;;2.00;1.80;;;1.80;87.40;;;;;;4996954;28;20213;-71
2024/01/07 01:29:57;;;;;;;3.43;2.50;;;1.80;87.70;;;;;;5010336;28;20547;-70
2024/01/07 01:32:25;;;;;;;2.30;2.00;;;1.70;87.50;;;;;;4993191;28;20520;-71
2024/01/07 01:34:53;;;;;;;3.13;2.47;;;1.70;87.50;;;;;;4992750;28;20286;-71
2024/01/07 01:37:19;;;;;;;3.00;2.40;;;1.60;87.90;;;;;;5004992;28;20286;-71
2024/01/07 01:39:47;;;;;;;3.00;2.37;;;1.60;87.90;;;;;;4992117;28;20207;-72
2024/01/07 01:42:14;;;;;;;4.30;2.80;;;1.50;88.00;;;;;;4991089;28;20222;-72
2024/01/07 01:44:42;;;;;;;2.60;2.40;;;1.50;88.40;;;;;;5012967;28;20203;-71
2024/01/07 01:47:11;;;;;;;3.63;2.50;;;1.50;88.80;;;;;;5009023;28;20258;-72
2024/01/07 01:49:40;;;;;;;2.40;2.20;;;1.30;89.10;;;;;;4993577;28;20607;-72
2024/01/07 01:52:07;;;;;;;3.33;2.40;;;1.20;89.30;;;;;;5001311;28;20226;-72
2024/01/07 01:54:35;;;;;;;3.53;2.10;;;1.20;89.70;;;;;;5013984;28;20248;-72
2024/01/07 01:57:02;;;;;;;1.93;1.73;;;1.20;90.00;;;;;;4995296;28;20203;-72
2024/01/07 01:59:30;;;;;;;3.40;2.43;;;1.20;90.00;;;;;;5010788;28;20206;-72
2024/01/07 02:01:57;;;;;;;2.57;2.20;;;1.20;90.00;;;;;;5011978;28;20203;-71
2024/01/07 02:04:24;;;;;;;2.30;2.10;;;1.20;90.00;;;;;;4995938;28;20195;-71
2024/01/07 02:06:52;;;;;;;2.77;2.20;;;1.30;90.00;;;;;;5014431;28;20626;-72
2024/01/07 02:09:19;;;;;;;3.27;2.13;;;1.30;90.10;;;;;;5013737;28;20199;-72
2024/01/07 02:12:01;;;;;;;2.43;2.23;;;1.30;90.10;;;;;;5018368;28;20222;-71
2024/01/07 02:14:28;;;;;;;2.83;2.37;;;1.40;90.10;;;;;;4997650;28;20206;-70
2024/01/07 02:16:55;;;;;;;4.07;2.83;;;1.00;89.80;;;;;;4995917;28;20693;-70
2024/01/07 02:19:23;;;;;;;3.47;2.33;;;0.10;89.10;;;;;;5019843;28;20210;-70
2024/01/07 02:21:52;;;;;;;2.20;1.90;;;1.20;90.10;;;;;;5010501;28;20190;-70
2024/01/07 02:24:21;;;;;;;3.00;2.03;;;1.20;90.20;;;;;;4995781;28;20207;-69
2024/01/07 02:26:48;;;;;;;2.53;1.97;;;1.10;90.30;;;;;;5013467;28;20493;-70
2024/01/07 02:29:15;;;;;;;4.43;2.70;;;1.10;90.30;;;;;;5016432;28;20205;-69
2024/01/07 02:31:42;;;;;;;3.53;2.30;;;1.10;90.30;;;;;;5005645;28;20272;-70
2024/01/07 02:34:10;;;;;;;2.83;2.20;;;1.10;90.30;;;;;;5010912;28;20200;-70
2024/01/07 02:36:37;;;;;;;3.50;2.17;;;1.10;90.40;;;;;;5011828;28;20199;-70
2024/01/07 02:39:04;;;;;;;2.73;2.20;;;1.30;90.50;;;;;;5017919;28;20235;-70
2024/01/07 02:41:32;;;;;;;2.87;2.20;;;1.20;90.60;;;;;;5012085;28;20211;-70
2024/01/07 02:43:59;;;;;;;2.17;1.90;;;1.20;90.60;;;;;;5016319;28;20248;-71
2024/01/07 02:46:27;;;;;;;2.73;1.80;;;1.30;90.60;;;;;;4994205;28;20231;-72
2024/01/07 02:48:54;;;;;;;3.63;2.53;;;1.20;90.60;;;;;;5004021;28;20266;-71
2024/01/07 02:51:21;;;;;;;2.93;2.20;;;1.20;90.70;;;;;;4995215;28;20215;-71
2024/01/07 02:53:48;;;;;;;2.67;2.40;;;1.20;90.70;;;;;;4992599;28;20212;-71
2024/01/07 02:56:15;;;;;;;3.80;2.17;;;1.10;90.60;;;;;;5009763;28;21004;-71
2024/01/07 02:58:43;;;;;;;3.63;2.40;;;1.10;90.60;;;;;;5012572;28;20270;-71
2024/01/07 03:01:10;;;;;;;4.73;2.23;;;1.10;90.70;;;;;;5011566;28;20663;-71
2024/01/07 03:03:38;;;;;;;3.77;2.60;;;1.10;90.70;;;;;;5013176;28;20207;-71
2024/01/07 03:06:05;;;;;;;3.10;2.50;;;1.10;90.70;;;;;;4994808;28;20203;-71
2024/01/07 03:08:32;;;;;;;2.97;2.00;;;1.10;90.70;;;;;;5013144;28;20199;-71
2024/01/07 03:10:59;;;;;;;3.30;2.40;;;1.10;90.70;;;;;;5009227;28;20198;-71
2024/01/07 03:13:26;;;;;;;3.83;2.47;;;1.10;90.70;;;;;;5012466;28;20203;-71
2024/01/07 03:15:55;;;;;;;2.93;2.57;;;1.00;90.70;;;;;;4996719;28;20210;-71
2024/01/07 03:18:22;;;;;;;2.37;2.17;;;1.10;90.80;;;;;;5000786;28;20281;-71
2024/01/07 03:20:49;;;;;;;2.13;1.77;;;1.10;90.80;;;;;;5012074;28;20257;-71
2024/01/07 03:23:18;;;;;;;2.77;2.23;;;1.00;90.90;;;;;;4994700;28;20203;-71
2024/01/07 03:25:45;;;;;;;2.33;2.00;;;1.00;91.20;;;;;;5012954;28;20191;-71
2024/01/07 03:28:12;;;;;;;2.90;2.60;;;1.10;91.00;;;;;;5004662;28;20262;-71
2024/01/07 03:30:39;;;;;;;2.83;2.00;;;1.10;91.00;;;;;;5005944;28;20199;-71
2024/01/07 03:33:08;;;;;;;2.60;2.20;;;1.10;91.00;;;;;;5011785;28;20257;-71
2024/01/07 03:35:35;;;;;;;3.27;2.53;;;1.10;91.00;;;;;;5011670;28;20218;-71
2024/01/07 03:38:02;;;;;;;2.53;2.33;;;1.10;91.00;;;;;;5011699;28;20202;-72
2024/01/07 03:40:29;;;;;;;3.60;2.57;;;1.10;91.10;;;;;;4993019;28;20246;-71
2024/01/07 03:42:56;;;;;;;3.10;2.43;;;1.00;91.00;;;;;;5012363;28;20276;-71
2024/01/07 03:45:23;;;;;;;3.40;2.30;;;1.00;91.10;;;;;;4993829;28;20297;-72
2024/01/07 03:47:50;;;;;;;3.03;2.00;;;1.30;91.20;;;;;;5013039;28;20310;-72
2024/01/07 03:50:18;;;;;;;2.97;2.40;;;1.00;91.10;;;;;;5014614;28;20207;-71
2024/01/07 03:52:45;;;;;;;3.83;2.67;;;1.00;91.10;;;;;;5011729;28;20651;-71
2024/01/07 03:55:12;;;;;;;4.33;2.83;;;0.90;91.00;;;;;;5010286;28;20226;-71
2024/01/07 03:57:39;;;;;;;4.03;2.57;;;0.80;91.00;;;;;;5010456;28;20194;-71
2024/01/07 04:00:09;;;;;;;3.87;3.03;;;0.90;91.20;;;;;;5011277;28;20269;-71
2024/01/07 04:02:36;;;;;;;3.83;2.67;;;0.80;91.10;;;;;;5010973;28;20275;-71
2024/01/07 04:05:04;;;;;;;2.90;2.30;;;0.80;91.20;;;;;;5011332;28;20602;-71
2024/01/07 04:07:32;;;;;;;4.30;2.50;;;0.80;91.30;;;;;;5012035;28;20236;-71
2024/01/07 04:09:59;;;;;;;2.50;2.30;;;0.80;91.40;;;;;;5019267;28;20524;-71
2024/01/07 04:12:27;;;;;;;2.63;2.10;;;0.80;91.50;;;;;;5010509;28;20211;-71
2024/01/07 04:14:54;;;;;;;4.23;2.13;;;0.80;91.50;;;;;;5018601;28;20199;-72
2024/01/07 04:17:21;;;;;;;2.30;1.83;;;0.80;91.60;;;;;;4993033;28;20213;-71
2024/01/07 04:19:48;;;;;;;2.77;2.50;;;0.80;91.60;;;;;;5010878;28;20291;-71
2024/01/07 04:22:15;;;;;;;3.77;2.60;;;0.90;91.70;;;;;;4993960;28;20828;-71
2024/01/07 04:24:43;;;;;;;5.90;2.90;;;0.80;91.60;;;;;;5010670;28;20207;-71
2024/01/07 04:27:11;;;;;;;6.57;2.97;;;0.90;91.80;;;;;;4992870;28;20198;-70
2024/01/07 04:29:38;;;;;;;3.00;2.40;;;0.90;91.80;;;;;;5000097;28;20536;-70
2024/01/07 04:32:05;;;;;;;2.47;2.10;;;0.90;91.80;;;;;;5001552;28;20192;-71
2024/01/07 04:34:32;;;;;;;3.53;2.70;;;0.90;91.90;;;;;;4991209;28;20214;-72
2024/01/07 04:36:59;;;;;;;3.77;2.60;;;0.90;92.00;;;;;;5007147;28;20230;-71
2024/01/07 04:39:26;;;;;;;2.50;2.30;;;0.90;92.10;;;;;;5011630;28;20604;-70
2024/01/07 04:41:55;;;;;;;4.87;3.07;;;0.90;92.10;;;;;;5010566;28;20602;-70
2024/01/07 04:44:22;;;;;;;5.00;3.07;;;0.90;92.00;;;;;;5010688;28;20199;-70
2024/01/07 04:46:49;;;;;;;3.50;2.87;;;-0.10;91.60;;;;;;5009957;28;20314;-70
2024/01/07 04:49:16;;;;;;;3.07;2.57;;;0.80;91.90;;;;;;5008070;28;20195;-69
2024/01/07 04:51:43;;;;;;;4.63;2.80;;;0.80;91.80;;;;;;5009730;28;20618;-69
2024/01/07 04:54:10;;;;;;;5.53;3.00;;;0.70;91.80;;;;;;5017931;28;20222;-69
2024/01/07 04:56:37;;;;;;;4.00;2.73;;;0.60;91.90;;;;;;5013864;28;20635;-70
2024/01/07 04:59:06;;;;;;;3.53;2.77;;;0.60;92.00;;;;;;4992533;28;20250;-71
2024/01/07 05:01:33;;;;;;;4.40;2.60;;;0.50;91.90;;;;;;5010104;28;20313;-71
2024/01/07 05:04:00;;;;;;;5.70;3.20;;;0.50;91.90;;;;;;4991359;28;20195;-70
2024/01/07 05:06:27;;;;;;;3.30;2.90;;;0.50;91.90;;;;;;5010015;28;20623;-71
2024/01/07 05:08:55;;;;;;;4.83;2.90;;;0.40;91.70;;;;;;5009850;28;20195;-71
2024/01/07 05:11:22;;;;;;;3.90;3.20;;;0.30;91.70;;;;;;4992179;28;20253;-71
2024/01/07 05:13:49;;;;;;;3.63;3.00;;;0.20;91.60;;;;;;4992857;28;20285;-72
2024/01/07 05:16:25;;;;;;;3.73;3.00;;;0.20;91.60;;;;;;5005104;28;20249;-70
2024/01/07 05:18:52;;;;;;;5.77;3.40;;;0.20;91.60;;;;;;5006390;28;20193;-71
2024/01/07 05:21:20;;;;;;;4.93;3.53;;;0.10;91.40;;;;;;5001599;28;20215;-71
2024/01/07 05:23:47;;;;;;;4.47;3.20;;;0.10;91.30;;;;;;5010484;28;20222;-71
2024/01/07 05:26:14;;;;;;;3.20;2.90;;;0.00;91.10;;;;;;5012489;28;20214;-71
2024/01/07 05:28:41;;;;;;;4.63;2.93;;;-0.10;91.20;;;;;;5013616;28;20198;-71
2024/01/07 05:31:15;;;;;;;7.83;3.53;;;-0.20;90.80;;;;;;5013167;28;20203;-70
2024/01/07 05:33:44;;;;;;;4.53;3.07;;;-0.30;90.50;;;;;;5018555;28;20266;-71
2024/01/07 05:36:11;;;;;;;6.83;3.77;;;-0.30;90.80;;;;;;5014739;28;20245;-71
2024/01/07 05:38:38;;;;;;;8.20;4.00;;;0.10;90.90;;;;;;5019953;28;20198;-70
2024/01/07 05:41:05;;;;;;;10.37;4.20;;;-0.30;90.70;;;;;;4995212;28;20253;-68
2024/01/07 05:43:32;;;;;;;10.90;4.37;;;-0.40;90.30;;;;;;5014012;28;20213;-69
2024/01/07 05:45:59;;;;;;;10.93;4.67;;;-0.40;90.30;;;;;;5013936;28;20249;-69
2024/01/07 05:48:26;;;;;;;8.07;3.70;;;-0.40;90.00;;;;;;5024350;28;20198;-69
2024/01/07 05:50:55;;;;;;;10.40;3.73;;;-0.40;90.10;;;;;;5015481;28;20261;-71
2024/01/07 05:53:22;;;;;;;7.03;3.53;;;-0.50;90.00;;;;;;5022664;28;20231;-72
2024/01/07 05:55:49;;;;;;;6.87;3.13;;;-0.50;90.10;;;;;;4994976;28;20214;-71
2024/01/07 05:58:16;;;;;;;8.17;3.70;;;-0.40;90.00;;;;;;5013057;28;20207;-70
2024/01/07 06:00:43;;;;;;;7.13;3.30;;;-0.30;89.80;;;;;;5005963;28;20222;-71
2024/01/07 06:03:12;;;;;;;8.83;4.20;;;-0.30;89.70;;;;;;5021124;28;20196;-70
2024/01/07 06:05:40;;;;;;;5.73;3.60;;;-0.40;88.00;;;;;;5004006;28;20558;-73
2024/01/07 06:08:09;;;;;;;4.93;3.10;;;-0.40;88.20;;;;;;4995989;28;20191;-74
2024/01/07 06:10:37;;;;;;;7.30;3.83;;;-0.50;88.70;;;;;;4996373;28;20270;-72
2024/01/07 06:13:04;;;;;;;6.30;3.77;;;-0.50;88.90;;;;;;5017336;28;20670;-72
2024/01/07 06:15:31;;;;;;;3.93;3.00;;;-0.40;89.00;;;;;;5020591;28;20203;-72
2024/01/07 06:17:58;;;;;;;5.93;3.87;;;-0.30;89.20;;;;;;5009655;28;20617;-71
2024/01/07 06:20:25;;;;;;;4.87;3.47;;;-0.20;88.40;;;;;;5011997;28;20230;-70
2024/01/07 06:22:52;;;;;;;6.73;3.30;;;-0.20;87.20;;;;;;4995838;28;20699;-70
2024/01/07 06:25:21;;;;;;;4.90;3.70;;;-0.30;85.70;;;;;;5025330;28;20695;-72
2024/01/07 06:27:48;;;;;;;5.93;3.63;;;-0.30;84.50;;;;;;4997525;28;20345;-72
2024/01/07 06:30:16;;;;;;;5.60;3.67;;;-0.30;83.40;;;;;;5010670;28;20219;-73
2024/01/07 06:32:45;;;;;;;6.87;3.70;;;-0.40;83.60;;;;;;5015423;28;20199;-73
2024/01/07 06:35:12;;;;;;;7.30;3.97;;;-0.40;83.70;;;;;;5012268;28;20662;-73
2024/01/07 06:37:39;;;;;;;6.33;4.50;;;-0.40;83.70;;;;;;4991732;28;20199;-73
2024/01/07 06:40:07;;;;;;;4.73;3.37;;;-0.40;82.90;;;;;;5013885;28;20226;-73
2024/01/07 06:42:36;;;;;;;4.70;3.60;;;-0.50;83.40;;;;;;4991903;28;20224;-72
2024/01/07 06:45:04;;;;;;;4.30;3.33;;;-0.50;84.10;;;;;;5016174;28;20199;-72
2024/01/07 06:47:31;;;;;;;5.57;3.53;;;-0.50;84.30;;;;;;4992747;28;20594;-72
2024/01/07 06:49:58;;;;;;;4.97;2.93;;;-0.40;84.10;;;;;;4995568;28;20759;-73
2024/01/07 06:52:25;;;;;;;6.93;3.90;;;-0.50;84.20;;;;;;5012815;28;20647;-70
2024/01/07 06:54:52;;;;;;;6.77;4.10;;;-0.50;83.80;;;;;;5012888;28;20245;-71
2024/01/07 06:57:19;;;;;;;4.23;2.93;;;-0.50;83.40;;;;;;4992811;28;20242;-70
2024/01/07 06:59:48;;;;;;;5.40;3.80;;;-0.50;83.70;;;;;;5012622;28;20203;-71
2024/01/07 07:02:15;;;;;;;9.13;4.47;;;-0.50;83.20;;;;;;4994872;28;20199;-72
2024/01/07 07:04:42;;;;;;;8.50;3.83;;;-0.50;82.70;;;;;;5007564;28;20263;-72
2024/01/07 07:07:09;;;;;;;10.27;4.30;;;-0.50;82.40;;;;;;4993995;28;20635;-72
2024/01/07 07:09:36;;;;;;;6.23;3.60;;;-0.60;81.70;;;;;;5011214;28;20198;-72
2024/01/07 07:12:03;;;;;;;4.70;3.20;;;-0.60;82.00;;;;;;5012069;28;20593;-72
2024/01/07 07:14:30;;;;;;;4.00;2.60;;;-0.70;82.20;;;;;;5012810;28;20246;-71
2024/01/07 07:16:59;;;;;;;3.33;2.77;;;-0.70;82.20;;;;;;5011993;28;20261;-71
2024/01/07 07:19:26;;;;;;;5.67;3.10;;;-0.80;82.40;;;;;;4994985;28;20206;-72
2024/01/07 07:21:53;;;;;;;4.00;3.30;;;-0.90;82.40;;;;;;5012509;28;20590;-71
2024/01/07 07:24:20;;;;;;;7.33;3.40;;;-0.80;82.40;;;;;;4995070;28;20195;-72
2024/01/07 07:26:47;;;;;;;7.30;3.87;;;-0.70;82.30;;;;;;5011337;28;20199;-71
2024/01/07 07:29:14;;;;;;;6.53;3.60;;;-0.70;81.90;;;;;;5011387;28;20199;-71
2024/01/07 07:31:41;;;;;;;5.27;3.90;;;-0.70;81.30;;;;;;5010386;28;20228;-72
2024/01/07 07:34:11;;;;;;;6.80;3.83;;;-0.70;80.60;;;;;;4994748;28;20215;-71
2024/01/07 07:36:40;;;;;;;6.10;4.13;;;-0.70;80.80;;;;;;4993824;28;20666;-71
2024/01/07 07:39:09;;;;;;;4.90;3.47;;;-0.80;80.90;;;;;;5012022;28;20580;-71
2024/01/07 07:41:36;;;;;;;7.00;3.90;;;-1.00;80.90;;;;;;4994309;28;20659;-72
2024/01/07 07:44:03;;;;;;;8.43;4.87;;;-0.90;81.30;;;;;;5012614;28;20698;-71
2024/01/07 07:46:30;;;;;;;9.37;4.73;;;-1.00;81.20;;;;;;5011976;28;20637;-74
2024/01/07 07:48:57;;;;;;;11.87;5.30;;;-1.00;81.50;;;;;;4989626;28;20308;-73
2024/01/07 07:51:26;;;;;;;11.50;6.30;;;-1.00;81.80;;;;;;5012145;28;20689;-73
2024/01/07 07:53:53;;;;;;;7.73;5.07;;;-1.00;81.90;;;;;;5011190;28;20211;-73
2024/01/07 07:56:20;;;;;;;8.47;4.83;;;-1.00;82.10;;;;;;5011429;28;20662;-73
2024/01/07 07:58:48;;;;;;;10.10;5.70;;;-1.00;82.30;;;;;;4991595;28;20773;-70
2024/01/07 08:01:15;;;;;;;10.27;5.90;;;-1.00;82.20;;;;;;4999601;28;20206;-70
2024/01/07 08:03:42;;;;;;;9.63;6.03;;;-0.90;82.00;;;;;;5006588;28;20195;-70
2024/01/07 08:06:09;;;;;;;9.13;6.40;;;-0.90;81.60;;;;;;5010967;28;20199;-70
2024/01/07 08:08:39;;;;;;;7.23;5.17;;;-0.80;81.00;;;;;;5010636;28;20194;-71
2024/01/07 08:11:08;;;;;;;6.33;4.40;;;-0.80;81.30;;;;;;5011585;28;20572;-70
2024/01/07 08:13:37;;;;;;;8.40;4.50;;;-0.90;81.10;;;;;;5008448;28;20191;-70
2024/01/07 08:16:06;;;;;;;8.67;6.17;;;-0.80;81.50;;;;;;5010998;28;20203;-70
2024/01/07 08:18:33;;;;;;;9.60;5.50;;;-0.80;81.30;;;;;;5012615;28;20690;-70
2024/01/07 08:21:00;;;;;;;8.27;4.90;;;-0.80;81.60;;;;;;5011309;28;20553;-70
2024/01/07 08:23:27;;;;;;;9.13;5.20;;;-0.80;81.00;;;;;;5008574;28;20667;-70
2024/01/07 08:25:55;;;;;;;8.93;5.53;;;-0.80;81.10;;;;;;5011310;28;20199;-70
2024/01/07 08:28:23;;;;;;;6.73;4.70;;;-0.80;80.20;;;;;;5011046;28;20230;-70
2024/01/07 08:30:51;;;;;;;6.17;4.17;;;-0.80;80.30;;;;;;4992992;28;20211;-69
2024/01/07 08:33:18;;;;;;;7.10;4.23;;;-0.90;80.70;;;;;;5011327;28;20218;-70
2024/01/07 08:35:46;;;;;;;7.20;4.23;;;-1.00;80.40;;;;;;5010326;28;20552;-70
2024/01/07 08:38:13;;;;;;;10.50;4.40;;;-0.90;80.60;;;;;;5010872;28;20282;-70
2024/01/07 08:40:39;;;;;;;7.73;4.63;;;-0.80;80.60;;;;;;5010335;28;20273;-70
2024/01/07 08:43:08;;;;;;;6.90;4.57;;;-0.90;80.60;;;;;;5005283;28;20285;-69
2024/01/07 08:45:35;;;;;;;7.27;4.13;;;-0.90;80.70;;;;;;4992329;28;20651;-70
2024/01/07 08:48:02;;;;;;;8.53;3.90;;;-1.00;80.70;;;;;;5010371;28;20285;-70
2024/01/07 08:50:29;;;;;;;7.47;4.40;;;-0.90;80.90;;;;;;5014093;28;20191;-70
2024/01/07 08:52:57;;;;;;;10.23;4.70;;;-0.80;80.70;;;;;;5009454;28;20200;-71
2024/01/07 08:55:24;;;;;;;8.67;4.70;;;-0.90;80.40;;;;;;5012603;28;20257;-71
2024/01/07 08:57:51;;;;;;;13.33;7.60;;;-1.00;80.70;;;;;;5008196;28;20221;-70
2024/01/07 09:00:21;;;;;;;13.10;6.37;;;-1.00;80.80;;;;;;4989585;28;20210;-71
2024/01/07 09:02:48;;;;;;;10.17;6.33;;;-1.00;80.90;;;;;;5006673;28;20601;-71
2024/01/07 09:05:15;;;;;;;9.13;5.23;;;-1.00;80.90;;;;;;5009097;28;20281;-71
2024/01/07 09:07:42;;;;;;;6.40;4.67;;;-1.00;81.20;;;;;;5016242;28;20203;-71
2024/01/07 09:10:11;;;;;;;6.33;4.23;;;-1.00;80.90;;;;;;5011818;28;20258;-70
2024/01/07 09:12:38;;;;;;;7.63;4.40;;;-1.00;81.00;;;;;;4994203;28;20658;-71
2024/01/07 09:15:07;;;;;;;9.57;4.77;;;-1.00;80.60;;;;;;5009103;28;20277;-71
2024/01/07 09:17:37;;;;;;;7.90;4.40;;;-0.90;80.30;;;;;;5010613;28;20285;-72
2024/01/07 09:20:07;;;;;;;9.97;4.63;;;-0.90;79.90;;;;;;5019414;28;20241;-71
2024/01/07 09:22:34;;;;;;;8.87;4.80;;;-0.90;79.60;;;;;;5011554;28;20199;-72
2024/01/07 09:25:02;;;;;;;7.83;4.37;;;-0.90;79.30;;;;;;5012533;28;20186;-71
2024/01/07 09:27:29;;;;;;;7.83;3.87;;;-1.00;79.00;;;;;;5008590;28;20195;-71
2024/01/07 09:29:56;;;;;;;8.57;4.10;;;-1.00;79.20;;;;;;5011968;28;20613;-70
2024/01/07 09:32:23;;;;;;;7.33;4.10;;;-1.00;79.00;;;;;;5009490;28;20275;-70
2024/01/07 09:34:52;;;;;;;7.90;4.97;;;-1.00;79.10;;;;;;5008453;28;20643;-70
2024/01/07 09:37:19;;;;;;;7.73;4.80;;;-1.00;79.00;;;;;;5009128;28;20278;-69
2024/01/07 09:39:47;;;;;;;10.03;5.50;;;-0.90;78.90;;;;;;5008833;28;20195;-70
2024/01/07 09:42:15;;;;;;;12.60;4.77;;;-0.80;78.60;;;;;;4991758;28;20226;-70
2024/01/07 09:44:43;;;;;;;7.33;4.47;;;-0.80;78.30;;;;;;5013216;28;20675;-70
2024/01/07 09:47:12;;;;;;;5.93;3.73;;;-0.80;78.20;;;;;;5005621;28;20227;-70
2024/01/07 09:49:39;;;;;;;8.30;4.63;;;-0.70;78.80;;;;;;5010994;28;20203;-70
2024/01/07 09:52:09;;;;;;;7.87;4.97;;;-0.60;78.10;;;;;;5009859;28;20199;-70
2024/01/07 09:54:38;;;;;;;7.10;5.00;;;-0.50;77.80;;;;;;4991101;28;20309;-70
2024/01/07 09:57:07;;;;;;;8.97;4.53;;;-0.40;77.80;;;;;;5008804;28;20302;-71
2024/01/07 09:59:36;;;;;;;8.67;4.37;;;-0.30;77.60;;;;;;4992697;28;20323;-70
2024/01/07 10:02:03;;;;;;;8.60;4.80;;;-0.30;77.20;;;;;;5002326;28;20206;-70
2024/01/07 10:04:31;;;;;;;5.53;4.47;;;-0.40;76.40;;;;;;5004242;28;20203;-70
2024/01/07 10:06:58;;;;;;;7.97;4.07;;;-0.40;76.20;;;;;;5006165;28;20195;-70
2024/01/07 10:09:30;;;;;;;6.37;3.67;;;-0.40;76.10;;;;;;5000579;28;20746;-70
2024/01/07 10:11:57;;;;;;;5.70;3.63;;;-0.40;76.20;;;;;;4992047;28;20732;-70
2024/01/07 10:14:25;;;;;;;4.07;3.47;;;-0.40;76.50;;;;;;5002935;28;20211;-70
2024/01/07 10:16:53;;;;;;;4.57;3.43;;;-0.40;76.60;;;;;;5015055;28;20523;-70
2024/01/07 10:19:22;;;;;;;4.73;3.33;;;-0.40;76.70;;;;;;5013558;28;20258;-70
2024/01/07 10:22:01;;;;;;;4.07;3.13;;;-0.50;76.80;;;;;;5009486;28;20281;-71
2024/01/07 10:24:38;;;;;;;9.10;4.07;;;-0.40;76.90;;;;;;5011122;28;20198;-70
2024/01/07 10:27:06;;;;;;;3.90;3.07;;;-0.40;75.70;;;;;;4999807;28;20570;-69
2024/01/07 10:29:33;;;;;;;7.17;3.50;;;-0.50;75.40;;;;;;4994630;28;20272;-69
2024/01/07 10:32:02;;;;;;;6.77;4.27;;;-0.50;75.60;;;;;;5008973;28;20250;-70
2024/01/07 10:34:32;;;;;;;8.97;4.53;;;-0.60;76.00;;;;;;5003473;28;20218;-69
2024/01/07 10:37:00;;;;;;;7.03;4.27;;;-0.60;76.00;;;;;;5011224;28;20231;-69
2024/01/07 10:39:28;;;;;;;5.07;3.20;;;-0.70;75.90;;;;;;5013185;28;20203;-70
2024/01/07 10:41:58;;;;;;;4.53;3.33;;;-0.60;76.60;;;;;;5012696;28;20195;-70
2024/01/07 10:44:27;;;;;;;4.40;3.50;;;-0.60;76.50;;;;;;5012550;28;20278;-69
2024/01/07 10:46:56;;;;;;;6.70;4.30;;;-0.50;76.20;;;;;;5012338;28;21011;-70
2024/01/07 10:49:25;;;;;;;5.83;3.70;;;-0.50;75.90;;;;;;5012714;28;20226;-70
2024/01/07 10:52:04;;;;;;;6.27;3.77;;;-0.40;76.30;;;;;;5011183;28;20226;-70
2024/01/07 10:54:33;;;;;;;6.87;4.00;;;-0.10;76.30;;;;;;5011136;28;20215;-70
2024/01/07 10:57:10;;;;;;;6.97;4.07;;;-0.20;75.90;;;;;;5009243;28;20205;-70
2024/01/07 10:59:38;;;;;;;5.57;3.13;;;-0.10;76.30;;;;;;5012006;28;20190;-70
2024/01/07 11:02:05;;;;;;;9.97;4.80;;;0.20;77.20;;;;;;5011292;28;20229;-69
2024/01/07 11:04:42;;;;;;;6.97;4.03;;;0.50;75.30;;;;;;4991911;28;20205;-69
2024/01/07 11:07:19;;;;;;;9.17;4.70;;;0.60;75.10;;;;;;5009707;28;20199;-69
2024/01/07 11:10:04;;;;;;;4.57;3.40;;;0.50;75.20;;;;;;5007298;28;20195;-70
2024/01/07 11:12:34;;;;;;;6.47;3.90;;;0.50;75.30;;;;;;5004109;28;20198;-70
2024/01/07 11:15:01;;;;;;;5.27;3.33;;;0.40;75.10;;;;;;5012064;28;20207;-70
2024/01/07 11:17:45;;;;;;;10.23;4.60;;;0.30;75.00;;;;;;5014337;28;20200;-70
2024/01/07 11:20:18;;;;;;;5.70;3.83;;;0.20;74.80;;;;;;5008078;28;20218;-70
2024/01/07 11:22:46;;;;;;;5.67;3.73;;;0.10;74.30;;;;;;5009294;28;20202;-70
2024/01/07 11:25:29;;;;;;;7.63;3.70;;;0.10;74.90;;;;;;5008103;28;20192;-70
2024/01/07 11:27:59;;;;;;;3.90;3.13;;;0.00;74.50;;;;;;5007874;28;20202;-70
2024/01/07 11:30:26;;;;;;;8.00;4.17;;;-0.10;74.80;;;;;;5010304;28;20539;-70
2024/01/07 11:33:00;;;;;;;4.33;3.03;;;-0.10;74.80;;;;;;5009430;28;20567;-69
2024/01/07 11:35:57;;;;;;;4.87;3.60;;;-0.20;75.50;;;;;;5020930;28;20217;-69
2024/01/07 11:38:25;;;;;;;6.47;3.57;;;-0.20;74.90;;;;;;5005403;28;20214;-69
2024/01/07 11:40:54;;;;;;;7.37;4.00;;;-0.20;75.10;;;;;;5012257;28;20218;-69
2024/01/07 11:43:22;;;;;;;4.60;3.10;;;-0.20;74.60;;;;;;5010807;28;20203;-70
2024/01/07 11:45:51;;;;;;;5.40;3.70;;;-0.30;74.40;;;;;;4991677;28;20348;-70
2024/01/07 11:48:18;;;;;;;5.77;3.77;;;-0.40;74.20;;;;;;4993314;28;20207;-70
2024/01/07 11:50:45;;;;;;;8.70;3.70;;;-0.50;73.90;;;;;;5011436;28;20567;-69
2024/01/07 11:53:13;;;;;;;5.50;3.97;;;-0.50;74.20;;;;;;5009578;28;20191;-69
2024/01/07 11:55:40;;;;;;;8.27;3.90;;;-0.50;74.50;;;;;;5011052;28;20624;-70
2024/01/07 11:58:07;;;;;;;7.13;4.20;;;-0.50;74.70;;;;;;5009214;28;20203;-69
2024/01/07 12:00:40;;;;;;;7.40;4.27;;;-0.60;74.60;;;;;;5009820;28;20237;-70
2024/01/07 12:03:07;;;;;;;7.03;4.47;;;-0.60;74.50;;;;;;5010043;28;20195;-69
2024/01/07 12:05:34;;;;;;;7.80;4.00;;;-0.70;74.40;;;;;;4992650;28;20195;-69
2024/01/07 12:08:05;;;;;;;6.87;3.87;;;-0.70;74.50;;;;;;5010280;28;20293;-69
2024/01/07 12:10:34;;;;;;;9.33;4.30;;;-0.60;75.00;;;;;;4988875;28;20671;-69
2024/01/07 12:13:03;;;;;;;7.87;4.27;;;-0.60;75.00;;;;;;4987625;28;21017;-69
2024/01/07 12:15:31;;;;;;;6.90;4.43;;;-0.60;75.10;;;;;;5009685;28;20317;-69
2024/01/07 12:18:01;;;;;;;7.40;4.40;;;-0.50;75.00;;;;;;4992229;28;20310;-69
2024/01/07 12:20:29;;;;;;;8.00;4.03;;;-0.40;74.90;;;;;;5005905;28;20218;-70
2024/01/07 12:23:05;;;;;;;6.87;4.30;;;-0.50;74.70;;;;;;5009288;28;20286;-69
2024/01/07 12:25:33;;;;;;;6.47;4.03;;;-0.60;74.60;;;;;;5009455;28;20218;-69
2024/01/07 12:28:00;;;;;;;6.60;3.87;;;-0.70;74.50;;;;;;5001998;28;20604;-69
2024/01/07 12:30:27;;;;;;;7.50;3.87;;;-0.70;74.60;;;;;;5005580;28;20196;-69
2024/01/07 12:32:54;;;;;;;6.30;3.77;;;-0.80;74.80;;;;;;5008303;28;20195;-69
2024/01/07 12:35:26;;;;;;;7.20;4.10;;;-0.80;75.20;;;;;;4989888;28;20218;-70
2024/01/07 12:37:53;;;;;;;6.23;3.80;;;-0.80;75.30;;;;;;5008357;28;20222;-70
2024/01/07 12:40:20;;;;;;;9.50;4.00;;;-0.70;75.30;;;;;;5010265;28;20202;-70
2024/01/07 12:42:49;;;;;;;5.50;3.40;;;-0.70;74.90;;;;;;5008929;28;20241;-70
2024/01/07 12:45:16;;;;;;;6.80;4.00;;;-0.70;74.90;;;;;;5010454;28;20198;-70
2024/01/07 12:47:43;;;;;;;6.87;3.70;;;-0.60;74.90;;;;;;5008225;28;20242;-70
2024/01/07 12:50:11;;;;;;;4.50;3.37;;;-0.60;74.80;;;;;;5005005;28;20253;-70
2024/01/07 12:52:40;;;;;;;5.83;3.57;;;-0.60;75.00;;;;;;5009166;28;20277;-70
2024/01/07 12:55:08;;;;;;;6.17;3.80;;;-0.60;75.30;;;;;;5009618;28;20646;-70